Main page
METAR-TAF:

METAR-TAF

Airports :

Riga International Airport

Riga, Latvia

latitude: 56-55N, longitude: 023-58E, elevation: 10 m

Current weather observation

The report was made 19 minutes ago, at 22:50 UTC
Wind 1 kt from the South/Southwest
Temperature 10°C
Humidity 100%
Pressure 1027 hPa
Visibility 10 km or more
Shallow fog

METAR: EVRA 092250Z 21001KT 9999 MIFG NSC 10/10 Q1027 NOSIG

Time: 02:09 (23:09 UTC)

Forecast

The report was made 3 hours and 9 minutes ago, at 20:00 UTC
Forecast valid from 09 at 21 UTC to 10 at 21 UTC
Wind 2 kt from variable directions
Visibility: 9000 m
Scattered clouds at a height of 4000 ft
Temporary
from 09 at 21 UTC to 10 at 04 UTC
Visibility: 0600 m
at a height of 100 ft
fog

TAF: EVRA 092000Z 0921/1021 VRB02KT 9000 SCT040 TEMPO 0921/1004 0600 FG VV001

Weather observations and forecasts of more than 4000 airports (METAR and TAF reports).

The available stations are represented by yellow and red dots on the map.

Hover mouse over dot to see the name of the station.

Then click to see weather observations and forecasts.

To change the map : click on the green buttons with a black cross to zoom in, on the green button with a dash to zoom out, or on the green arrows for adjacent maps.


METAR-TAF: